createdAt,value
2019-05-21T00:00:50.292Z,29.80
2019-05-21T00:05:44.246Z,28.67
2019-05-21T00:10:38.223Z,29.00
2019-05-21T00:15:32.259Z,23.60
2019-05-21T00:20:26.309Z,21.27
2019-05-21T00:25:20.258Z,20.10
2019-05-21T00:30:51.749Z,20.70
2019-05-21T00:36:25.410Z,18.17
2019-05-21T00:41:56.873Z,18.77
2019-05-21T00:46:50.870Z,17.50
2019-05-21T00:51:45.044Z,18.50
2019-05-21T00:56:39.020Z,17.83
2019-05-21T01:01:32.987Z,17.77
2019-05-21T01:06:26.993Z,16.48
2019-05-21T01:11:21.049Z,17.63
2019-05-21T01:16:15.026Z,16.40
2019-05-21T01:21:09.128Z,17.20
2019-05-21T01:26:03.202Z,16.97
2019-05-21T01:30:57.162Z,16.67
2019-05-21T01:35:51.757Z,15.00
2019-05-21T01:40:45.711Z,17.63
2019-05-21T01:45:39.682Z,16.17
2019-05-21T01:50:33.649Z,18.43
2019-05-21T01:55:27.733Z,17.57
2019-05-21T02:00:21.762Z,17.13
2019-05-21T02:05:15.713Z,17.40
2019-05-21T02:10:09.867Z,17.93
2019-05-21T02:15:05.363Z,16.77
2019-05-21T02:19:59.336Z,18.20
2019-05-21T02:24:53.280Z,17.37
2019-05-21T02:29:47.245Z,16.50
2019-05-21T02:34:41.243Z,18.13
2019-05-21T02:39:35.384Z,18.10
2019-05-21T02:44:29.476Z,18.40
2019-05-21T02:49:23.441Z,18.63
2019-05-21T02:54:17.527Z,17.73
2019-05-21T02:59:11.485Z,18.37
2019-05-21T03:04:05.656Z,18.77
2019-05-21T03:08:59.719Z,19.70
2019-05-21T03:13:53.780Z,19.33
2019-05-21T03:18:47.778Z,19.87
2019-05-21T03:23:41.732Z,18.53
2019-05-21T03:28:35.849Z,18.90
2019-05-21T03:33:29.800Z,18.17
2019-05-21T03:38:23.808Z,15.90
2019-05-21T03:43:17.769Z,15.43
2019-05-21T03:48:11.741Z,16.37
2019-05-21T03:53:05.697Z,18.03
2019-05-21T03:57:59.661Z,16.10
2019-05-21T04:02:53.694Z,15.67
2019-05-21T04:07:47.690Z,16.30
2019-05-21T04:12:41.660Z,17.17
2019-05-21T04:17:40.744Z,17.57
2019-05-21T04:22:36.658Z,16.20
2019-05-21T04:27:30.614Z,16.47
2019-05-21T04:32:24.583Z,19.70
2019-05-21T04:37:18.579Z,22.53
2019-05-21T04:42:12.534Z,27.60
2019-05-21T04:47:06.515Z,28.30
2019-05-21T04:52:00.576Z,30.07
2019-05-21T04:56:54.535Z,31.23
2019-05-21T05:01:48.730Z,30.10
2019-05-21T05:06:42.720Z,30.67
2019-05-21T05:11:36.813Z,31.77
2019-05-21T05:16:30.888Z,33.67
2019-05-21T05:21:24.980Z,33.43
2019-05-21T05:26:18.944Z,34.77
2019-05-21T05:31:15.504Z,35.33
2019-05-21T05:36:09.116Z,34.37
2019-05-21T05:41:03.176Z,34.03
2019-05-21T05:45:57.264Z,34.53
2019-05-21T05:50:53.138Z,32.67
2019-05-21T05:55:47.199Z,33.70
2019-05-21T06:00:41.212Z,30.77
2019-05-21T06:05:35.471Z,31.03
2019-05-21T06:10:29.468Z,32.57
2019-05-21T06:15:23.457Z,30.57
2019-05-21T06:20:18.056Z,31.50
2019-05-21T06:25:12.350Z,33.13
2019-05-21T06:30:07.546Z,34.97
2019-05-21T06:35:03.532Z,37.50
2019-05-21T06:39:57.791Z,38.53
2019-05-21T06:44:51.749Z,37.63
2019-05-21T06:49:45.720Z,41.07
2019-05-21T06:54:39.768Z,37.90
2019-05-21T06:59:33.726Z,37.67
2019-05-21T07:04:27.758Z,37.83
2019-05-21T07:09:21.726Z,37.97
2019-05-21T07:14:15.783Z,38.10
2019-05-21T07:19:10.319Z,36.80
2019-05-21T07:24:04.330Z,36.03
2019-05-21T07:28:58.437Z,34.20
2019-05-21T07:33:52.495Z,33.17
2019-05-21T07:38:53.094Z,32.47
2019-05-21T07:43:43.371Z,30.27
2019-05-21T07:48:37.321Z,30.90
2019-05-21T07:53:31.287Z,28.30
2019-05-21T07:58:25.433Z,28.07
2019-05-21T08:03:19.379Z,26.77
2019-05-21T08:08:13.483Z,27.57
2019-05-21T08:13:07.468Z,25.77
2019-05-21T08:18:01.594Z,25.83
2019-05-21T08:22:55.560Z,27.47
2019-05-21T08:27:50.146Z,28.53
2019-05-21T08:32:44.241Z,26.97
2019-05-21T08:37:38.263Z,26.77
2019-05-21T08:42:32.306Z,27.00
2019-05-21T08:47:26.383Z,26.80
2019-05-21T08:52:21.978Z,24.67
2019-05-21T08:57:16.477Z,20.33
2019-05-21T09:02:10.626Z,19.83
2019-05-21T09:07:04.796Z,17.93
2019-05-21T09:11:58.898Z,17.20
2019-05-21T09:17:05.902Z,16.50
2019-05-21T09:21:59.954Z,19.27
2019-05-21T09:26:54.010Z,19.90
2019-05-21T09:31:47.993Z,19.43
2019-05-21T09:36:42.294Z,17.87
2019-05-21T09:41:36.266Z,18.07
2019-05-21T09:46:30.351Z,17.10
2019-05-21T09:51:24.437Z,18.30
2019-05-21T09:56:37.074Z,18.27
2019-05-21T10:52:51.051Z,13.20
2019-05-21T10:57:45.110Z,14.83
2019-05-21T11:02:53.258Z,19.37
2019-05-21T11:07:47.212Z,20.80
2019-05-21T11:12:41.244Z,23.07
2019-05-21T11:17:49.635Z,23.30
2019-05-21T11:22:31.275Z,23.80
2019-05-21T11:27:25.366Z,23.77
2019-05-21T11:32:19.476Z,24.10
2019-05-21T11:37:13.528Z,24.33
2019-05-21T11:42:07.598Z,25.80
2019-05-21T11:47:01.770Z,25.20
2019-05-21T11:51:55.845Z,26.87
2019-05-21T11:56:49.832Z,24.87
2019-05-21T12:01:43.910Z,26.63
2019-05-21T12:06:37.983Z,27.03
2019-05-21T12:11:31.995Z,27.40
2019-05-21T12:16:25.997Z,28.53
2019-05-21T12:21:20.154Z,27.97
2019-05-21T12:26:14.176Z,28.57
2019-05-21T12:31:08.151Z,27.40
2019-05-21T12:36:02.444Z,26.53
2019-05-21T12:40:56.528Z,27.63
2019-05-21T12:45:50.784Z,27.33
2019-05-21T12:50:44.956Z,28.47
2019-05-21T12:55:39.019Z,28.53
2019-05-21T13:00:33.693Z,27.63
2019-05-21T13:05:28.068Z,26.33
2019-05-21T13:10:22.133Z,26.00
2019-05-21T13:15:16.240Z,25.77
2019-05-21T13:20:10.794Z,26.07
2019-05-21T13:25:05.713Z,27.47
2019-05-21T13:29:59.703Z,27.90
2019-05-21T13:34:53.812Z,28.30
2019-05-21T13:39:50.361Z,27.57
2019-05-21T13:44:43.807Z,26.13
2019-05-21T13:49:37.926Z,26.67
2019-05-21T13:54:32.046Z,26.47
2019-05-21T13:59:26.042Z,26.83
2019-05-21T14:04:20.431Z,26.43
2019-05-21T14:09:14.580Z,26.13
2019-05-21T14:14:08.767Z,26.67
2019-05-21T14:19:02.992Z,28.40
2019-05-21T14:23:57.102Z,26.87
2019-05-21T14:28:51.065Z,26.53
2019-05-21T14:33:46.874Z,24.97
2019-05-21T14:38:41.092Z,26.20
2019-05-21T14:43:35.194Z,25.40
2019-05-21T14:48:29.171Z,24.70
2019-05-21T14:53:23.169Z,26.17
2019-05-21T14:58:17.251Z,24.97
2019-05-21T15:03:24.225Z,26.07
2019-05-21T15:08:07.522Z,26.20
2019-05-21T15:13:05.718Z,26.27
2019-05-21T15:17:57.603Z,23.77
2019-05-21T15:22:51.906Z,25.57
2019-05-21T15:27:45.990Z,25.60
2019-05-21T15:32:40.119Z,26.33
2019-05-21T15:37:34.307Z,26.87
2019-05-21T15:42:28.531Z,25.70
2019-05-21T15:47:22.790Z,27.00
2019-05-21T15:52:16.884Z,27.20
2019-05-21T15:57:11.165Z,25.10
2019-05-21T16:02:05.598Z,24.27
2019-05-21T16:06:59.702Z,25.07
2019-05-21T16:11:53.703Z,24.13
2019-05-21T16:16:47.705Z,25.20
2019-05-21T16:21:41.795Z,24.37
2019-05-21T16:26:35.782Z,25.20
2019-05-21T16:31:29.764Z,24.67
2019-05-21T16:36:23.766Z,24.37
2019-05-21T16:41:17.854Z,24.63
2019-05-21T16:46:11.863Z,23.57
2019-05-21T16:51:05.853Z,24.83
2019-05-21T16:55:59.859Z,23.67
2019-05-21T17:00:54.101Z,25.03
2019-05-21T17:05:48.222Z,22.77
2019-05-21T17:10:42.556Z,23.47
2019-05-21T17:15:36.510Z,22.67
2019-05-21T17:20:33.989Z,23.33
2019-05-21T17:25:26.690Z,21.03
2019-05-21T17:30:20.855Z,21.57
2019-05-21T17:35:15.198Z,22.47
2019-05-21T17:40:09.468Z,21.50
2019-05-21T17:45:05.832Z,20.13
2019-05-21T17:49:59.943Z,22.57
2019-05-21T17:54:57.070Z,20.57
2019-05-21T17:59:50.407Z,22.13
2019-05-21T18:04:44.565Z,22.27
2019-05-21T18:09:39.665Z,23.07
2019-05-21T18:14:34.971Z,23.77
2019-05-21T18:19:29.599Z,24.93
2019-05-21T18:24:24.194Z,25.40
2019-05-21T18:29:18.402Z,25.43
2019-05-21T18:34:12.653Z,25.37
2019-05-21T18:39:07.013Z,24.63
2019-05-21T18:44:01.498Z,27.50
2019-05-21T18:48:55.566Z,26.57
2019-05-21T18:53:49.898Z,26.40
2019-05-21T18:58:44.086Z,25.63
2019-05-21T19:03:38.199Z,26.57
2019-05-21T19:08:32.435Z,24.43
2019-05-21T19:13:26.657Z,23.77
2019-05-21T19:18:20.641Z,23.73
2019-05-21T19:23:14.938Z,23.90
2019-05-21T19:28:09.004Z,23.27
2019-05-21T19:33:03.215Z,22.33
2019-05-21T19:37:57.417Z,22.23
2019-05-21T19:42:55.275Z,21.87
2019-05-21T19:47:47.837Z,21.27
2019-05-21T19:52:42.009Z,20.63
2019-05-21T19:57:37.793Z,20.83
2019-05-21T20:02:32.478Z,20.97
2019-05-21T20:07:27.358Z,19.23
2019-05-21T20:12:23.361Z,18.73
2019-05-21T20:17:17.740Z,19.33
2019-05-21T20:22:11.969Z,19.57
2019-05-21T20:27:06.650Z,19.63
2019-05-21T20:32:00.749Z,21.33
2019-05-21T20:36:55.110Z,19.43
2019-05-21T20:41:49.075Z,18.83
2019-05-21T20:46:43.520Z,18.13
2019-05-21T20:51:37.671Z,18.80
2019-05-21T20:56:33.100Z,18.33
2019-05-21T21:01:27.535Z,16.67
2019-05-21T21:06:34.839Z,17.63
2019-05-21T21:11:18.162Z,17.97
2019-05-21T21:16:13.008Z,18.47
2019-05-21T21:21:07.154Z,19.40
2019-05-21T21:26:01.155Z,19.60
2019-05-21T21:30:55.439Z,20.17
2019-05-21T21:35:50.008Z,19.97
2019-05-21T21:40:44.175Z,21.37
2019-05-21T21:45:38.165Z,20.87
2019-05-21T21:50:32.755Z,19.57
2019-05-21T21:55:26.832Z,19.50
2019-05-21T22:00:58.142Z,19.33
2019-05-21T22:05:52.332Z,19.50
2019-05-21T22:10:46.504Z,18.67
2019-05-21T22:15:40.485Z,19.10
2019-05-21T22:20:35.034Z,18.53
2019-05-21T22:25:29.343Z,19.13
2019-05-21T22:30:24.226Z,21.13
2019-05-21T22:35:18.410Z,19.10
2019-05-21T22:40:13.084Z,17.90
2019-05-21T22:45:09.484Z,18.77
2019-05-21T22:50:05.472Z,19.33
2019-05-21T22:54:59.541Z,19.77
2019-05-21T22:59:53.513Z,19.27
2019-05-21T23:04:47.885Z,19.73
2019-05-21T23:09:41.962Z,20.97
2019-05-21T23:14:36.715Z,21.47
2019-05-21T23:19:31.243Z,20.77
2019-05-21T23:24:25.225Z,21.90
2019-05-21T23:29:19.600Z,22.30
2019-05-21T23:34:13.757Z,22.43
2019-05-21T23:39:09.654Z,22.83
2019-05-21T23:44:05.336Z,22.20
2019-05-21T23:48:59.339Z,21.80
2019-05-21T23:53:53.781Z,20.87
2019-05-21T23:58:48.303Z,20.67
